createdAt,value
2019-03-05T00:00:31.828Z,6.40
2019-03-05T00:03:00.635Z,6.40
2019-03-05T00:05:29.459Z,6.40
2019-03-05T00:07:58.242Z,6.40
2019-03-05T00:10:27.060Z,6.50
2019-03-05T00:12:55.884Z,6.50
2019-03-05T00:15:29.565Z,6.50
2019-03-05T00:17:58.306Z,6.50
2019-03-05T00:20:27.068Z,6.50
2019-03-05T00:22:55.843Z,6.50
2019-03-05T00:25:35.524Z,6.60
2019-03-05T00:28:19.211Z,6.60
2019-03-05T00:30:57.331Z,6.60
2019-03-05T00:33:29.165Z,6.60
2019-03-05T00:36:00.868Z,6.60
2019-03-05T00:38:54.050Z,6.60
2019-03-05T00:41:38.060Z,6.60
2019-03-05T00:44:25.035Z,6.60
2019-03-05T00:46:59.675Z,6.60
2019-03-05T00:49:53.045Z,6.60
2019-03-05T00:52:30.459Z,6.70
2019-03-05T00:55:26.643Z,6.60
2019-03-05T00:58:15.724Z,6.60
2019-03-05T01:01:03.817Z,6.70
2019-03-05T01:03:44.804Z,6.70
2019-03-05T01:06:22.091Z,6.70
2019-03-05T01:08:51.092Z,6.70
2019-03-05T01:11:20.690Z,6.70
2019-03-05T01:13:49.556Z,6.70
2019-03-05T01:16:20.060Z,6.80
2019-03-05T01:18:48.811Z,6.80
2019-03-05T01:21:17.810Z,6.80
2019-03-05T01:23:46.637Z,6.90
2019-03-05T01:26:15.443Z,6.90
2019-03-05T01:28:44.243Z,6.80
2019-03-05T01:31:20.451Z,6.90
2019-03-05T01:33:51.163Z,6.90
2019-03-05T01:36:33.926Z,6.90
2019-03-05T01:39:16.339Z,6.90
2019-03-05T01:41:45.154Z,6.90
2019-03-05T01:44:13.955Z,6.90
2019-03-05T01:46:42.829Z,6.90
2019-03-05T01:49:11.652Z,6.80
2019-03-05T01:51:40.466Z,6.80
2019-03-05T01:54:09.318Z,6.80
2019-03-05T01:56:38.123Z,6.80
2019-03-05T01:59:06.931Z,6.70
2019-03-05T02:01:35.827Z,6.70
2019-03-05T02:04:04.640Z,6.60
2019-03-05T02:06:33.380Z,6.60
2019-03-05T02:09:02.173Z,6.60
2019-03-05T02:11:30.937Z,6.60
2019-03-05T02:13:59.747Z,6.60
2019-03-05T02:16:28.659Z,6.50
2019-03-05T02:19:33.734Z,6.50
2019-03-05T02:22:02.555Z,6.50
2019-03-05T02:24:54.042Z,6.50
2019-03-05T02:27:54.843Z,6.40
2019-03-05T02:30:51.012Z,6.40
2019-03-05T02:33:42.021Z,6.40
2019-03-05T02:36:45.482Z,6.30
2019-03-05T02:39:42.955Z,6.30
2019-03-05T02:42:20.332Z,6.30
2019-03-05T02:45:00.941Z,6.30
2019-03-05T02:47:38.626Z,6.30
2019-03-05T02:50:39.180Z,6.30
2019-03-05T02:53:20.125Z,6.30
2019-03-05T02:55:51.925Z,6.30
2019-03-05T02:58:19.525Z,6.30
2019-03-05T03:01:05.271Z,6.30
2019-03-05T03:03:38.599Z,6.30
2019-03-05T03:06:11.725Z,6.20
2019-03-05T03:08:40.488Z,6.20
2019-03-05T03:11:09.316Z,6.20
2019-03-05T03:13:38.189Z,6.20
2019-03-05T03:16:06.955Z,6.20
2019-03-05T03:18:35.692Z,6.20
2019-03-05T03:21:04.508Z,6.20
2019-03-05T03:23:33.332Z,6.30
2019-03-05T03:26:02.084Z,6.30
2019-03-05T03:28:30.939Z,6.30
2019-03-05T03:30:59.757Z,6.40
2019-03-05T03:33:28.516Z,6.40
2019-03-05T03:35:57.320Z,6.50
2019-03-05T03:38:26.139Z,6.50
2019-03-05T03:40:54.894Z,6.50
2019-03-05T03:43:23.795Z,6.60
2019-03-05T03:45:52.613Z,6.60
2019-03-05T03:48:23.012Z,6.60
2019-03-05T03:50:51.885Z,6.60
2019-03-05T03:53:20.628Z,6.70
2019-03-05T03:55:49.459Z,6.70
2019-03-05T03:58:18.253Z,6.70
2019-03-05T04:00:47.081Z,6.70
2019-03-05T04:03:15.830Z,6.80
2019-03-05T04:05:44.650Z,6.80
2019-03-05T04:08:13.398Z,6.80
2019-03-05T04:10:42.149Z,6.80
2019-03-05T04:13:10.959Z,6.80
2019-03-05T04:15:39.790Z,6.90
2019-03-05T04:18:08.600Z,6.90
2019-03-05T04:20:39.075Z,6.90
2019-03-05T04:23:07.741Z,6.90
2019-03-05T04:25:36.508Z,6.90
2019-03-05T04:28:05.420Z,7.00
2019-03-05T04:30:34.236Z,7.00
2019-03-05T04:33:03.069Z,7.00
2019-03-05T04:35:31.915Z,7.00
2019-03-05T04:38:00.604Z,7.00
2019-03-05T04:40:29.435Z,7.00
2019-03-05T04:42:58.323Z,7.00
2019-03-05T04:45:30.954Z,7.00
2019-03-05T04:47:59.931Z,6.90
2019-03-05T04:50:30.344Z,7.00
2019-03-05T04:52:59.150Z,7.00
2019-03-05T04:55:27.977Z,7.00
2019-03-05T04:57:56.860Z,7.00
2019-03-05T05:00:25.652Z,7.00
2019-03-05T05:02:54.491Z,7.00
2019-03-05T05:05:23.387Z,7.00
2019-03-05T05:07:52.210Z,7.00
2019-03-05T05:10:21.036Z,7.00
2019-03-05T05:12:49.851Z,7.00
2019-03-05T05:15:30.228Z,7.00
2019-03-05T05:17:59.233Z,7.00
2019-03-05T05:20:28.196Z,6.90
2019-03-05T05:22:57.030Z,7.00
2019-03-05T05:25:25.911Z,7.00
2019-03-05T05:27:54.667Z,7.00
2019-03-05T05:30:32.596Z,7.00
2019-03-05T05:33:01.404Z,6.90
2019-03-05T05:35:30.227Z,6.90
2019-03-05T05:37:59.026Z,6.90
2019-03-05T05:40:31.757Z,6.90
2019-03-05T05:43:00.565Z,6.90
2019-03-05T05:45:49.771Z,6.80
2019-03-05T05:48:18.893Z,6.80
2019-03-05T05:50:47.620Z,6.80
2019-03-05T05:53:16.444Z,6.70
2019-03-05T05:55:45.371Z,6.70
2019-03-05T05:58:14.117Z,6.70
2019-03-05T06:00:44.576Z,6.70
2019-03-05T06:03:13.411Z,6.60
2019-03-05T06:05:42.179Z,6.70
2019-03-05T06:08:11.060Z,6.70
2019-03-05T06:10:39.837Z,6.70
2019-03-05T06:13:08.575Z,6.70
2019-03-05T06:15:37.444Z,6.60
2019-03-05T06:18:06.210Z,6.60
2019-03-05T06:20:34.916Z,6.60
2019-03-05T06:23:03.809Z,6.60
2019-03-05T06:25:32.560Z,6.60
2019-03-05T06:28:01.388Z,6.60
2019-03-05T06:30:32.860Z,6.60
2019-03-05T06:33:01.699Z,6.60
2019-03-05T06:35:30.476Z,6.60
2019-03-05T06:37:59.268Z,6.60
2019-03-05T06:40:29.818Z,6.60
2019-03-05T06:42:58.630Z,6.60
2019-03-05T06:45:27.500Z,6.60
2019-03-05T06:47:56.235Z,6.60
2019-03-05T06:50:26.170Z,6.60
2019-03-05T06:52:55.048Z,6.60
2019-03-05T06:55:23.772Z,6.60
2019-03-05T06:57:52.531Z,6.60
2019-03-05T07:00:32.929Z,6.60
2019-03-05T07:03:01.867Z,6.60
2019-03-05T07:06:07.031Z,6.70
2019-03-05T07:08:37.171Z,6.70
2019-03-05T07:11:08.921Z,6.70
2019-03-05T07:13:37.811Z,6.70
2019-03-05T07:16:09.507Z,6.70
2019-03-05T07:18:41.136Z,6.80
2019-03-05T07:21:22.066Z,6.80
2019-03-05T07:24:13.204Z,6.80
2019-03-05T07:26:42.061Z,6.80
2019-03-05T07:29:10.812Z,6.80
2019-03-05T07:31:39.650Z,6.80
2019-03-05T07:34:10.107Z,6.90
2019-03-05T07:36:38.933Z,6.90
2019-03-05T07:39:10.683Z,6.90
2019-03-05T07:41:39.603Z,6.90
2019-03-05T07:44:08.430Z,7.00
2019-03-05T07:46:37.199Z,7.00
2019-03-05T07:49:06.090Z,7.10
2019-03-05T07:51:34.876Z,7.10
2019-03-05T07:54:03.625Z,7.20
2019-03-05T07:56:32.523Z,7.20
2019-03-05T07:59:01.286Z,7.30
2019-03-05T08:01:30.164Z,7.40
2019-03-05T08:03:59.028Z,7.40
2019-03-05T08:06:27.867Z,7.50
2019-03-05T08:09:25.334Z,7.50
2019-03-05T08:11:57.003Z,7.50
2019-03-05T08:14:40.884Z,7.50
2019-03-05T08:17:09.733Z,7.50
2019-03-05T08:19:38.540Z,7.50
2019-03-05T08:22:08.919Z,7.60
2019-03-05T08:24:37.819Z,7.70
2019-03-05T08:27:06.571Z,7.80
2019-03-05T08:29:35.390Z,7.80
2019-03-05T08:32:04.309Z,7.80
2019-03-05T08:34:33.106Z,7.90
2019-03-05T08:37:01.995Z,7.90
2019-03-05T08:39:30.759Z,7.90
2019-03-05T08:41:59.515Z,7.90
2019-03-05T08:44:28.634Z,8.00
2019-03-05T08:46:57.443Z,8.10
2019-03-05T08:49:26.259Z,8.20
2019-03-05T08:51:55.078Z,8.40
2019-03-05T08:54:23.811Z,8.50
2019-03-05T08:56:52.635Z,8.60
2019-03-05T08:59:21.523Z,8.80
2019-03-05T09:01:50.356Z,8.80
2019-03-05T09:04:19.179Z,8.80
2019-03-05T09:06:48.814Z,8.90
2019-03-05T09:09:17.843Z,9.00
2019-03-05T09:11:46.578Z,9.00
2019-03-05T09:14:15.555Z,8.90
2019-03-05T09:16:44.395Z,8.80
2019-03-05T09:19:13.180Z,8.80
2019-03-05T09:21:42.003Z,8.80
2019-03-05T09:24:10.811Z,8.80
2019-03-05T09:26:50.531Z,8.90
2019-03-05T09:29:10.164Z,9.00
2019-03-05T09:31:38.973Z,9.10
2019-03-05T09:34:07.819Z,9.20
2019-03-05T09:36:36.621Z,9.20
2019-03-05T09:39:07.732Z,9.20
2019-03-05T09:41:36.667Z,9.40
2019-03-05T09:44:05.547Z,9.50
2019-03-05T09:46:34.276Z,9.50
2019-03-05T09:49:03.173Z,9.40
2019-03-05T09:51:32.010Z,9.50
2019-03-05T09:54:00.821Z,9.70
2019-03-05T09:56:29.635Z,9.70
2019-03-05T09:58:58.459Z,9.70
2019-03-05T10:01:27.194Z,9.70
2019-03-05T10:03:56.012Z,9.60
2019-03-05T10:06:24.893Z,9.60
2019-03-05T10:08:53.668Z,9.50
2019-03-05T10:11:23.011Z,9.60
2019-03-05T10:13:51.839Z,9.60
2019-03-05T10:16:20.588Z,9.60
2019-03-05T10:18:49.339Z,9.50
2019-03-05T10:21:18.162Z,9.60
2019-03-05T10:23:48.181Z,9.60
2019-03-05T10:26:18.715Z,9.60
2019-03-05T10:28:47.715Z,9.60
2019-03-05T10:31:18.631Z,9.50
2019-03-05T10:33:47.042Z,9.50
2019-03-05T10:36:15.868Z,9.40
2019-03-05T10:38:44.684Z,9.50
2019-03-05T10:41:13.539Z,9.40
2019-03-05T10:43:42.380Z,9.40
2019-03-05T10:46:11.532Z,9.30
2019-03-05T10:48:40.332Z,9.20
2019-03-05T10:51:09.228Z,9.10
2019-03-05T10:53:38.050Z,9.10
2019-03-05T10:56:07.475Z,9.10
2019-03-05T10:58:36.339Z,9.10
2019-03-05T11:01:07.741Z,9.10
2019-03-05T11:03:36.554Z,9.10
2019-03-05T11:06:07.387Z,9.10
2019-03-05T11:08:36.147Z,9.20
2019-03-05T11:11:13.039Z,9.10
2019-03-05T11:13:35.442Z,9.10
2019-03-05T11:16:05.844Z,9.00
2019-03-05T11:18:35.102Z,8.90
2019-03-05T11:21:04.547Z,9.00
2019-03-05T11:23:33.298Z,9.00
2019-03-05T11:26:02.051Z,9.00
2019-03-05T11:28:30.885Z,9.00
2019-03-05T11:30:59.691Z,9.00
2019-03-05T11:33:28.385Z,9.10
2019-03-05T11:35:57.187Z,9.20
2019-03-05T11:38:25.941Z,9.10
2019-03-05T11:40:54.780Z,9.10
2019-03-05T11:43:23.658Z,9.10
2019-03-05T11:45:52.412Z,9.10
2019-03-05T11:48:21.219Z,9.10
2019-03-05T11:50:51.651Z,9.10
2019-03-05T11:53:20.699Z,9.20
2019-03-05T11:55:49.516Z,9.20
2019-03-05T11:58:18.435Z,9.20
2019-03-05T12:00:51.721Z,9.20
2019-03-05T12:03:20.527Z,9.10
2019-03-05T12:05:49.404Z,9.10
2019-03-05T12:08:18.185Z,9.10
2019-03-05T12:10:46.932Z,9.00
2019-03-05T12:13:16.013Z,9.00
2019-03-05T12:15:45.848Z,9.00
2019-03-05T12:18:14.686Z,9.10
2019-03-05T12:20:43.562Z,9.10
2019-03-05T12:23:12.401Z,9.20
2019-03-05T12:25:41.446Z,9.20
2019-03-05T12:28:11.240Z,9.30
2019-03-05T12:30:40.515Z,9.30
2019-03-05T12:33:09.561Z,9.40
2019-03-05T12:35:38.460Z,9.40
2019-03-05T12:38:07.235Z,9.50
2019-03-05T12:40:36.059Z,9.50
2019-03-05T12:43:04.947Z,9.50
2019-03-05T12:45:33.797Z,9.50
2019-03-05T12:48:02.549Z,9.50
2019-03-05T12:50:33.156Z,9.50
2019-03-05T12:53:01.987Z,9.40
2019-03-05T12:55:30.820Z,9.40
2019-03-05T12:57:59.652Z,9.30
2019-03-05T13:00:33.523Z,9.20
2019-03-05T13:03:02.348Z,9.20
2019-03-05T13:05:31.227Z,9.10
2019-03-05T13:08:00.051Z,9.20
2019-03-05T13:10:35.193Z,9.40
2019-03-05T13:13:00.594Z,9.40
2019-03-05T13:15:42.789Z,9.50
2019-03-05T13:18:14.116Z,9.50
2019-03-05T13:20:42.084Z,9.50
2019-03-05T13:23:10.945Z,9.60
2019-03-05T13:25:39.780Z,9.60
2019-03-05T13:28:08.541Z,9.70
2019-03-05T13:30:40.105Z,9.80
2019-03-05T13:33:07.924Z,9.80
2019-03-05T13:35:36.668Z,9.80
2019-03-05T13:38:09.329Z,9.80
2019-03-05T13:40:40.334Z,9.90
2019-03-05T13:43:08.849Z,9.90
2019-03-05T13:45:37.702Z,9.80
2019-03-05T13:48:20.507Z,9.90
2019-03-05T13:51:09.220Z,9.90
2019-03-05T13:53:46.826Z,9.90
2019-03-05T13:56:24.397Z,9.70
2019-03-05T13:59:11.209Z,9.70
2019-03-05T14:01:40.052Z,9.70
2019-03-05T14:04:16.557Z,9.80
2019-03-05T14:06:48.179Z,9.70
2019-03-05T14:09:16.380Z,9.70
2019-03-05T14:11:46.476Z,9.60
2019-03-05T14:14:20.787Z,9.50
2019-03-05T14:16:51.388Z,9.40
2019-03-05T14:19:20.220Z,9.30
2019-03-05T14:21:49.064Z,9.30
2019-03-05T14:24:17.866Z,9.20
2019-03-05T14:26:46.693Z,9.10
2019-03-05T14:29:15.580Z,9.00
2019-03-05T14:31:45.098Z,8.90
2019-03-05T14:34:13.960Z,8.80
2019-03-05T14:36:42.750Z,8.80
2019-03-05T14:39:24.369Z,8.80
2019-03-05T14:41:53.335Z,8.70
2019-03-05T14:44:22.205Z,8.70
2019-03-05T14:46:56.378Z,8.60
2019-03-05T14:49:25.268Z,8.60
2019-03-05T14:51:54.080Z,8.50
2019-03-05T14:54:22.864Z,8.50
2019-03-05T14:56:51.756Z,8.50
2019-03-05T14:59:20.548Z,8.50
2019-03-05T15:01:49.269Z,8.40
2019-03-05T15:04:18.188Z,8.30
2019-03-05T15:06:47.004Z,8.30
2019-03-05T15:09:15.892Z,8.20
2019-03-05T15:11:44.755Z,8.20
2019-03-05T15:14:13.594Z,8.10
2019-03-05T15:16:42.438Z,8.10
2019-03-05T15:19:20.856Z,8.10
2019-03-05T15:21:41.771Z,8.00
2019-03-05T15:24:10.633Z,8.00
2019-03-05T15:26:39.527Z,8.00
2019-03-05T15:29:08.316Z,8.10
2019-03-05T15:31:37.162Z,8.30
2019-03-05T15:34:06.080Z,8.30
2019-03-05T15:36:34.994Z,8.40
2019-03-05T15:39:04.092Z,8.50
2019-03-05T15:41:33.014Z,8.60
2019-03-05T15:44:01.775Z,8.60
2019-03-05T15:46:30.614Z,8.60
2019-03-05T15:48:59.483Z,8.60
2019-03-05T15:51:28.227Z,8.60
2019-03-05T15:53:57.059Z,8.50
2019-03-05T15:56:25.941Z,8.50
2019-03-05T15:58:54.675Z,8.50
2019-03-05T16:01:23.620Z,8.40
2019-03-05T16:03:52.546Z,8.30
2019-03-05T16:06:21.351Z,8.20
2019-03-05T16:08:50.188Z,8.10
2019-03-05T16:11:19.091Z,8.00
2019-03-05T16:13:47.843Z,8.00
2019-03-05T16:16:18.378Z,7.90
2019-03-05T16:18:47.139Z,7.90
2019-03-05T16:21:15.988Z,7.90
2019-03-05T16:23:44.802Z,7.80
2019-03-05T16:26:13.691Z,7.70
2019-03-05T16:28:43.580Z,7.70
2019-03-05T16:31:23.163Z,7.60
2019-03-05T16:33:56.260Z,7.60
2019-03-05T16:36:37.756Z,7.60
2019-03-05T16:39:10.401Z,7.50
2019-03-05T16:41:40.702Z,7.50
2019-03-05T16:44:19.899Z,7.50
2019-03-05T16:46:56.374Z,7.40
2019-03-05T16:49:32.260Z,7.40
2019-03-05T16:52:23.299Z,7.30
2019-03-05T16:54:59.500Z,7.20
2019-03-05T16:57:35.988Z,7.10
2019-03-05T17:00:15.051Z,7.10
2019-03-05T17:02:54.659Z,7.00
2019-03-05T17:05:28.997Z,7.00
2019-03-05T17:08:11.588Z,7.00
2019-03-05T17:10:45.011Z,7.00
2019-03-05T17:13:13.837Z,6.90
2019-03-05T17:15:42.759Z,6.90
2019-03-05T17:18:11.604Z,6.90
2019-03-05T17:20:40.425Z,6.90
2019-03-05T17:23:09.614Z,6.90
2019-03-05T17:25:38.484Z,6.90
2019-03-05T17:28:07.300Z,6.80
2019-03-05T17:30:36.165Z,6.70
2019-03-05T17:33:04.987Z,6.60
2019-03-05T17:35:33.957Z,6.40
2019-03-05T17:38:02.863Z,6.30
2019-03-05T17:40:31.651Z,6.20
2019-03-05T17:43:00.597Z,6.20
2019-03-05T17:45:29.508Z,6.10
2019-03-05T17:47:58.412Z,6.10
2019-03-05T17:50:27.170Z,6.00
2019-03-05T17:52:56.060Z,6.00
2019-03-05T17:55:27.347Z,6.00
2019-03-05T17:57:56.261Z,6.00
2019-03-05T18:00:26.707Z,6.00
2019-03-05T18:02:55.580Z,6.00
2019-03-05T18:05:24.413Z,6.00
2019-03-05T18:07:53.275Z,5.90
2019-03-05T18:10:22.322Z,5.90
2019-03-05T18:12:53.076Z,5.90
2019-03-05T18:15:21.708Z,5.90
2019-03-05T18:17:50.572Z,5.80
2019-03-05T18:20:23.830Z,5.80
2019-03-05T18:22:52.740Z,5.80
2019-03-05T18:25:21.886Z,5.80
2019-03-05T18:27:50.674Z,5.80
2019-03-05T18:30:32.550Z,5.80
2019-03-05T18:33:01.404Z,5.70
2019-03-05T18:35:30.251Z,5.70
2019-03-05T18:37:59.147Z,5.70
2019-03-05T18:40:27.957Z,5.70
2019-03-05T18:42:56.788Z,5.60
2019-03-05T18:45:32.444Z,5.60
2019-03-05T18:48:01.187Z,5.50
2019-03-05T18:50:30.029Z,5.50
2019-03-05T18:52:59.947Z,5.40
2019-03-05T18:55:29.236Z,5.40
2019-03-05T18:57:57.994Z,5.30
2019-03-05T19:00:31.757Z,5.30
2019-03-05T19:03:12.132Z,5.30
2019-03-05T19:05:41.109Z,5.20
2019-03-05T19:08:09.997Z,5.20
2019-03-05T19:10:38.820Z,5.20
2019-03-05T19:13:07.693Z,5.20
2019-03-05T19:15:37.644Z,5.20
2019-03-05T19:18:07.466Z,5.20
2019-03-05T19:20:38.246Z,5.20
2019-03-05T19:23:06.852Z,5.20
2019-03-05T19:25:44.132Z,5.20
2019-03-05T19:28:13.162Z,5.20
2019-03-05T19:30:47.444Z,5.20
2019-03-05T19:33:16.349Z,5.10
2019-03-05T19:35:45.192Z,5.10
2019-03-05T19:38:14.042Z,5.10
2019-03-05T19:40:44.308Z,5.10
2019-03-05T19:43:13.150Z,5.10
2019-03-05T19:45:41.996Z,5.10
2019-03-05T19:48:10.811Z,5.10
2019-03-05T19:50:39.650Z,5.10
2019-03-05T19:53:08.485Z,5.10
2019-03-05T19:55:37.374Z,5.10
2019-03-05T19:58:15.237Z,5.00
2019-03-05T20:00:53.235Z,5.00
2019-03-05T20:03:22.102Z,5.00
2019-03-05T20:05:50.933Z,5.00
2019-03-05T20:08:19.869Z,5.00
2019-03-05T20:10:48.691Z,5.00
2019-03-05T20:13:17.740Z,4.90
2019-03-05T20:15:46.625Z,4.90
2019-03-05T20:18:15.462Z,4.90
2019-03-05T20:20:44.292Z,4.90
2019-03-05T20:23:13.182Z,4.90
2019-03-05T20:25:42.259Z,4.90
2019-03-05T20:28:11.396Z,4.90
2019-03-05T20:30:40.282Z,4.80
2019-03-05T20:33:09.124Z,4.80
2019-03-05T20:35:37.948Z,4.80
2019-03-05T20:38:06.948Z,4.80
2019-03-05T20:40:36.659Z,4.70
2019-03-05T20:43:05.932Z,4.70
2019-03-05T20:45:40.469Z,4.70
2019-03-05T20:48:09.293Z,4.70
2019-03-05T20:50:38.148Z,4.70
2019-03-05T20:53:07.044Z,4.60
2019-03-05T20:55:35.892Z,4.60
2019-03-05T20:58:05.055Z,4.60
2019-03-05T21:00:37.899Z,4.60
2019-03-05T21:03:11.132Z,4.50
2019-03-05T21:05:41.884Z,4.50
2019-03-05T21:08:10.620Z,4.40
2019-03-05T21:10:39.469Z,4.40
2019-03-05T21:13:08.692Z,4.40
2019-03-05T21:15:37.901Z,4.40
2019-03-05T21:18:11.891Z,4.30
2019-03-05T21:20:40.724Z,4.40
2019-03-05T21:23:09.572Z,4.30
2019-03-05T21:25:38.400Z,4.30
2019-03-05T21:28:07.210Z,4.30
2019-03-05T21:30:36.268Z,4.30
2019-03-05T21:33:05.099Z,4.30
2019-03-05T21:35:33.981Z,4.30
2019-03-05T21:38:02.802Z,4.30
2019-03-05T21:40:32.732Z,4.20
2019-03-05T21:43:01.603Z,4.20
2019-03-05T21:45:35.893Z,4.20
2019-03-05T21:48:05.930Z,4.10
2019-03-05T21:50:34.711Z,4.10
2019-03-05T21:53:03.742Z,4.10
2019-03-05T21:55:32.611Z,4.00
2019-03-05T21:58:01.443Z,3.90
2019-03-05T22:00:32.459Z,3.90
2019-03-05T22:03:02.245Z,3.80
2019-03-05T22:05:31.475Z,3.80
2019-03-05T22:08:00.315Z,3.80
2019-03-05T22:10:29.238Z,3.70
2019-03-05T22:12:58.082Z,3.70
2019-03-05T22:15:31.211Z,3.70
2019-03-05T22:18:00.092Z,3.60
2019-03-05T22:20:28.939Z,3.60
2019-03-05T22:22:58.043Z,3.50
2019-03-05T22:25:28.926Z,3.50
2019-03-05T22:27:57.356Z,3.50
2019-03-05T22:30:36.756Z,3.40
2019-03-05T22:33:05.580Z,3.40
2019-03-05T22:35:34.397Z,3.40
2019-03-05T22:38:03.233Z,3.30
2019-03-05T22:40:32.061Z,3.30
2019-03-05T22:43:00.886Z,3.30
2019-03-05T22:45:33.919Z,3.30
2019-03-05T22:48:02.659Z,3.30
2019-03-05T22:50:31.415Z,3.20
2019-03-05T22:53:00.236Z,3.30
2019-03-05T22:55:28.995Z,3.20
2019-03-05T22:57:57.931Z,3.20
2019-03-05T23:00:46.380Z,3.20
2019-03-05T23:03:18.164Z,3.20
2019-03-05T23:05:47.004Z,3.20
2019-03-05T23:08:15.858Z,3.10
2019-03-05T23:10:44.708Z,3.10
2019-03-05T23:13:13.475Z,3.00
2019-03-05T23:15:42.347Z,3.00
2019-03-05T23:18:11.191Z,3.00
2019-03-05T23:20:40.004Z,3.00
2019-03-05T23:23:08.915Z,3.00
2019-03-05T23:25:37.719Z,3.00
2019-03-05T23:28:07.442Z,3.00
2019-03-05T23:30:36.644Z,3.00
2019-03-05T23:33:05.390Z,3.00
2019-03-05T23:35:34.220Z,3.00
2019-03-05T23:38:03.100Z,2.90
2019-03-05T23:40:31.916Z,2.90
2019-03-05T23:43:00.741Z,2.90
2019-03-05T23:45:29.645Z,2.80
2019-03-05T23:47:58.471Z,2.80
2019-03-05T23:50:27.242Z,2.70
2019-03-05T23:52:56.524Z,2.80
2019-03-05T23:55:25.364Z,2.70
2019-03-05T23:57:54.132Z,2.70
